This is the latest recevied weather packets stored in our database for station/object OE6JVE-13. If no packets are shown the sender has not sent any weather packets the latest 10 day(s).
| Time | Temp. | Humidity | Pressure | Rain* | Wind** | Luminosity | Snow |
|---|---|---|---|---|---|---|---|
| 1777388454 | 20° C | 38% | 1010.3 hPa | 0 mm | - | - | - |
| 1777387862 | 20° C | 37% | 1010.3 hPa | 0 mm | - | - | - |
| 1777386020 | 20.56° C | 38% | 1010.4 hPa | 0 mm | - | - | - |
| 1777384243 | 20.56° C | 35% | 1010.5 hPa | 0 mm | - | - | - |
| 1777383059 | 21.11° C | 35% | 1010.7 hPa | 0 mm | - | - | - |
| 1777382467 | 20.56° C | 34% | 1010.8 hPa | 0 mm | - | - | - |
| 1777381876 | 20.56° C | 35% | 1010.9 hPa | 0 mm | - | - | - |
| 1777381218 | 20.56° C | 35% | 1011 hPa | 0 mm | - | - | - |
| 1777380625 | 20° C | 36% | 1011.2 hPa | 0 mm | - | - | - |
| 1777379441 | 20° C | 35% | 1011.2 hPa | 0 mm | - | - | - |
| 1777378849 | 20.56° C | 35% | 1011.1 hPa | 0 mm | - | - | - |
| 1777378257 | 20.56° C | 34% | 1011.2 hPa | 0 mm | - | - | - |
| 1777377665 | 20.56° C | 35% | 1011.3 hPa | 0 mm | - | - | - |
| 1777375231 | 19.44° C | 34% | 1011.8 hPa | 0 mm | - | - | - |
| 1777374639 | 20° C | 35% | 1011.8 hPa | 0 mm | - | - | - |
| 1777373454 | 18.33° C | 36% | 1012.1 hPa | 0 mm | - | - | - |
| 1777372270 | 18.33° C | 39% | 1012.2 hPa | 0 mm | - | - | - |
| 1777371678 | 18.33° C | 40% | 1012.3 hPa | 0 mm | - | - | - |
| 1777371021 | 18.33° C | 40% | 1012.4 hPa | 0 mm | - | - | - |
| 1777370428 | 18.33° C | 37% | 1012.5 hPa | 0 mm | - | - | - |
| 1777369836 | 18.33° C | 40% | 1012.7 hPa | 0 mm | - | - | - |
| 1777369244 | 17.78° C | 40% | 1012.8 hPa | 0 mm | - | - | - |
| 1777368652 | 17.78° C | 40% | 1012.8 hPa | 0 mm | - | - | - |
| 1777368059 | 17.78° C | 40% | 1012.8 hPa | 0 mm | - | - | - |
| 1777367467 | 17.22° C | 41% | 1012.9 hPa | 0 mm | - | - | - |
* Rain latest hour (hover to see other rain measurements)
** Current wind speed in m/s (hover to see current wind gust speed)